createdAt,value
2022-08-11T00:01:36.665Z,2.20
2022-08-11T00:04:39.701Z,2.30
2022-08-11T00:07:46.696Z,2.10
2022-08-11T00:11:01.318Z,2.00
2022-08-11T00:14:05.206Z,2.03
2022-08-11T00:17:13.086Z,2.13
2022-08-11T00:20:17.144Z,2.03
2022-08-11T00:23:20.310Z,2.10
2022-08-11T00:26:23.810Z,2.20
2022-08-11T00:29:26.761Z,2.75
2022-08-11T00:32:29.800Z,2.00
2022-08-11T00:35:53.664Z,2.10
2022-08-11T00:39:02.651Z,2.50
2022-08-11T00:42:40.708Z,2.30
2022-08-11T00:45:46.917Z,2.08
2022-08-11T00:49:00.794Z,2.40
2022-08-11T00:52:22.083Z,2.30
2022-08-11T00:55:55.704Z,2.23
2022-08-11T00:59:36.307Z,2.40
2022-08-11T01:02:55.882Z,2.42
2022-08-11T01:06:22.828Z,2.45
2022-08-11T01:09:29.457Z,2.20
2022-08-11T01:12:45.159Z,2.30
2022-08-11T01:15:59.583Z,2.20
2022-08-11T01:19:27.821Z,2.20
2022-08-11T01:22:49.509Z,2.60
2022-08-11T01:26:28.524Z,2.22
2022-08-11T01:29:56.993Z,2.23
2022-08-11T01:33:16.549Z,2.40
2022-08-11T01:36:56.697Z,2.28
2022-08-11T01:40:02.749Z,2.53
2022-08-11T01:43:41.578Z,2.60
2022-08-11T01:46:57.643Z,1.93
2022-08-11T01:50:22.348Z,2.07
2022-08-11T01:53:37.122Z,2.38
2022-08-11T01:57:20.793Z,4.63
2022-08-11T02:00:26.697Z,3.13
2022-08-11T02:03:38.434Z,2.03
2022-08-11T02:07:18.326Z,2.40
2022-08-11T02:10:50.453Z,2.10
2022-08-11T02:14:13.536Z,2.40
2022-08-11T02:17:34.080Z,2.53
2022-08-11T02:21:18.681Z,2.40
2022-08-11T02:24:28.776Z,2.23
2022-08-11T02:27:48.071Z,1.98
2022-08-11T02:32:14.548Z,2.35
2022-08-11T02:35:00.142Z,1.83
2022-08-11T02:38:15.659Z,1.73
2022-08-11T02:42:01.862Z,2.10
2022-08-11T02:45:17.641Z,1.95
2022-08-11T02:49:10.428Z,1.90
2022-08-11T02:52:36.562Z,1.90
2022-08-11T02:55:57.176Z,2.27
2022-08-11T02:59:28.710Z,2.73
2022-08-11T03:02:41.270Z,2.83
2022-08-11T03:05:55.826Z,2.63
2022-08-11T03:09:34.902Z,2.20
2022-08-11T03:13:15.593Z,2.17
2022-08-11T03:16:44.260Z,2.30
2022-08-11T03:20:18.906Z,2.40
2022-08-11T03:23:31.356Z,2.90
2022-08-11T03:26:54.873Z,2.70
2022-08-11T03:30:11.018Z,2.80
2022-08-11T03:33:43.588Z,2.20
2022-08-11T03:37:16.148Z,2.65
2022-08-11T03:41:02.563Z,2.67
2022-08-11T03:44:25.860Z,2.65
2022-08-11T03:47:38.632Z,2.37
2022-08-11T03:51:08.340Z,2.73
2022-08-11T03:54:34.355Z,2.50
2022-08-11T03:57:59.479Z,2.47
2022-08-11T04:01:46.434Z,2.50
2022-08-11T04:05:17.534Z,2.43
2022-08-11T04:08:39.667Z,2.00
2022-08-11T04:11:55.914Z,1.60
2022-08-11T04:15:31.984Z,2.28
2022-08-11T04:18:47.178Z,1.92
2022-08-11T04:22:11.483Z,2.13
2022-08-11T04:25:29.372Z,1.87
2022-08-11T04:29:09.508Z,1.70
2022-08-11T04:32:31.163Z,1.70
2022-08-11T04:35:50.244Z,1.80
2022-08-11T04:39:14.995Z,1.63
2022-08-11T04:43:07.642Z,1.80
2022-08-11T04:46:19.705Z,2.00
2022-08-11T04:50:09.083Z,2.20
2022-08-11T04:53:38.361Z,2.13
2022-08-11T04:57:02.080Z,2.30
2022-08-11T05:00:28.260Z,1.97
2022-08-11T05:03:40.163Z,2.50
2022-08-11T05:06:58.495Z,1.92
2022-08-11T05:10:15.232Z,2.30
2022-08-11T05:13:53.742Z,2.00
2022-08-11T05:17:19.096Z,2.40
2022-08-11T05:20:40.892Z,1.83
2022-08-11T05:24:11.518Z,2.30
2022-08-11T05:27:34.293Z,2.00
2022-08-11T05:30:55.720Z,2.33
2022-08-11T05:34:26.275Z,2.57
2022-08-11T05:37:38.648Z,2.30
2022-08-11T05:41:09.126Z,2.15
2022-08-11T05:44:35.877Z,2.58
2022-08-11T05:47:57.164Z,2.30
2022-08-11T05:51:24.199Z,2.20
2022-08-11T05:54:51.457Z,2.20
2022-08-11T05:57:59.984Z,2.00
2022-08-11T06:01:02.965Z,2.20
2022-08-11T06:04:16.293Z,1.97
2022-08-11T06:07:26.318Z,2.43
2022-08-11T06:10:41.021Z,2.33
2022-08-11T06:13:46.842Z,2.38
2022-08-11T06:16:51.001Z,2.40
2022-08-11T06:20:07.482Z,1.90
2022-08-11T06:23:10.736Z,1.90
2022-08-11T06:26:14.126Z,2.10
2022-08-11T06:29:18.555Z,2.33
2022-08-11T06:32:26.318Z,2.20
2022-08-11T06:35:48.385Z,2.33
2022-08-11T06:39:03.226Z,2.47
2022-08-11T06:42:28.545Z,1.80
2022-08-11T06:45:40.648Z,1.90
2022-08-11T06:48:44.850Z,2.10
2022-08-11T06:51:48.690Z,2.20
2022-08-11T06:54:58.075Z,1.97
2022-08-11T06:58:20.905Z,2.00
2022-08-11T07:01:42.389Z,2.10
2022-08-11T07:05:08.284Z,2.28
2022-08-11T07:08:51.644Z,2.23
2022-08-11T07:12:50.616Z,1.90
2022-08-11T07:16:12.373Z,2.00
2022-08-11T07:19:38.220Z,2.03
2022-08-11T07:23:00.349Z,2.10
2022-08-11T07:26:21.977Z,2.10
2022-08-11T07:29:26.903Z,2.30
2022-08-11T07:32:32.865Z,2.28
2022-08-11T07:35:38.728Z,2.05
2022-08-11T07:38:51.298Z,1.92
2022-08-11T07:41:57.146Z,2.00
2022-08-11T07:45:18.952Z,2.40
2022-08-11T07:48:40.264Z,2.15
2022-08-11T07:52:02.274Z,2.35
2022-08-11T07:55:13.983Z,2.20
2022-08-11T07:58:44.050Z,2.27
2022-08-11T08:02:07.576Z,2.47
2022-08-11T08:05:29.439Z,2.20
2022-08-11T08:08:51.241Z,2.30
2022-08-11T08:12:13.220Z,2.05
2022-08-11T08:15:34.908Z,1.90
2022-08-11T08:18:38.082Z,1.60
2022-08-11T08:21:41.217Z,1.48
2022-08-11T08:24:48.663Z,1.70
2022-08-11T08:27:52.110Z,1.33
2022-08-11T08:30:56.329Z,1.80
2022-08-11T08:33:59.305Z,1.80
2022-08-11T08:37:02.446Z,2.13
2022-08-11T08:40:19.484Z,2.13
2022-08-11T08:43:22.586Z,2.15
2022-08-11T08:46:33.498Z,1.80
2022-08-11T08:49:40.276Z,2.40
2022-08-11T08:53:00.857Z,2.10
2022-08-11T08:56:04.221Z,1.85
2022-08-11T08:59:07.345Z,2.03
2022-08-11T09:02:13.047Z,1.63
2022-08-11T09:05:18.239Z,2.00
2022-08-11T09:08:21.849Z,1.50
2022-08-11T09:11:43.159Z,1.83
2022-08-11T09:15:05.788Z,2.10
2022-08-11T09:18:10.986Z,2.20
2022-08-11T09:21:42.528Z,1.83
2022-08-11T09:24:58.934Z,2.08
2022-08-11T09:28:01.874Z,2.35
2022-08-11T09:31:05.049Z,1.88
2022-08-11T09:34:09.202Z,2.20
2022-08-11T09:37:55.542Z,2.00
2022-08-11T09:40:57.100Z,1.88
2022-08-11T09:44:19.262Z,2.35
2022-08-11T09:47:26.703Z,1.60
2022-08-11T09:50:29.981Z,2.07
2022-08-11T09:53:40.793Z,1.90
2022-08-11T09:57:05.283Z,1.98
2022-08-11T10:00:13.180Z,1.90
2022-08-11T10:03:24.046Z,2.17
2022-08-11T10:06:46.747Z,2.00
2022-08-11T10:09:52.220Z,2.10
2022-08-11T10:13:04.775Z,1.83
2022-08-11T10:16:15.257Z,1.92
2022-08-11T10:19:22.048Z,1.85
2022-08-11T10:22:43.542Z,2.40
2022-08-11T10:26:05.248Z,2.50
2022-08-11T10:29:33.459Z,2.00
2022-08-11T10:33:00.014Z,1.73
2022-08-11T10:36:03.437Z,1.50
2022-08-11T10:39:20.703Z,2.10
2022-08-11T10:42:57.308Z,2.37
2022-08-11T10:46:19.886Z,2.17
2022-08-11T10:49:33.084Z,1.92
2022-08-11T10:52:55.220Z,2.60
2022-08-11T10:56:16.503Z,2.43
2022-08-11T10:59:19.459Z,2.70
2022-08-11T11:02:22.482Z,1.90
2022-08-11T11:05:31.346Z,1.60
2022-08-11T11:08:53.281Z,3.20
2022-08-11T11:12:17.708Z,2.20
2022-08-11T11:15:40.726Z,1.70
2022-08-11T11:18:44.355Z,1.65
2022-08-11T11:22:24.097Z,1.70
2022-08-11T11:25:38.755Z,2.20
2022-08-11T11:29:22.422Z,2.83
2022-08-11T11:32:50.011Z,1.80
2022-08-11T11:36:25.560Z,1.70
2022-08-11T11:39:30.228Z,1.70
2022-08-11T11:42:33.321Z,2.35
2022-08-11T11:45:36.337Z,2.90
2022-08-11T11:48:39.499Z,1.70
2022-08-11T11:51:42.484Z,2.10
2022-08-11T11:54:51.843Z,2.00
2022-08-11T11:58:18.601Z,2.95
2022-08-11T12:01:25.202Z,2.40
2022-08-11T12:04:28.162Z,1.90
2022-08-11T12:07:56.833Z,1.45
2022-08-11T12:11:31.605Z,2.63
2022-08-11T12:14:34.611Z,2.75
2022-08-11T12:17:37.705Z,2.33
2022-08-11T12:20:40.842Z,1.70
2022-08-11T12:24:04.553Z,1.55
2022-08-11T12:27:25.479Z,2.50
2022-08-11T12:30:29.267Z,2.17
2022-08-11T12:33:35.075Z,1.83
2022-08-11T12:36:41.208Z,1.57
2022-08-11T12:40:43.711Z,2.00
2022-08-11T12:43:57.217Z,2.10
2022-08-11T12:47:00.748Z,1.80
2022-08-11T12:50:22.863Z,1.90
2022-08-11T12:53:28.219Z,2.03
2022-08-11T12:56:57.076Z,2.40
2022-08-11T13:00:23.388Z,2.08
2022-08-11T13:03:44.714Z,1.88
2022-08-11T13:06:55.571Z,1.90
2022-08-11T13:09:58.837Z,1.70
2022-08-11T13:13:03.186Z,1.65
2022-08-11T13:16:06.685Z,1.63
2022-08-11T13:19:10.160Z,1.70
2022-08-11T13:22:13.131Z,1.63
2022-08-11T13:25:16.496Z,1.47
2022-08-11T13:28:19.596Z,1.55
2022-08-11T13:31:22.722Z,2.00
2022-08-11T13:34:26.987Z,1.65
2022-08-11T13:38:17.729Z,1.50
2022-08-11T13:40:56.436Z,1.70
2022-08-11T13:43:59.786Z,1.80
2022-08-11T13:47:07.007Z,1.80
2022-08-11T13:50:12.564Z,1.55
2022-08-11T13:53:17.168Z,1.80
2022-08-11T13:56:22.233Z,1.57
2022-08-11T13:59:30.964Z,1.45
2022-08-11T14:02:34.564Z,1.60
2022-08-11T14:05:40.352Z,1.55
2022-08-11T14:08:48.965Z,1.67
2022-08-11T14:12:21.517Z,1.47
2022-08-11T14:15:26.925Z,1.42
2022-08-11T14:18:30.922Z,1.55
2022-08-11T14:22:03.686Z,1.70
2022-08-11T14:25:10.608Z,1.40
2022-08-11T14:28:31.638Z,1.80
2022-08-11T14:31:39.584Z,1.30
2022-08-11T14:34:44.288Z,1.60
2022-08-11T14:37:47.258Z,1.40
2022-08-11T14:41:09.001Z,1.30
2022-08-11T14:44:30.896Z,1.70
2022-08-11T14:47:40.150Z,1.48
2022-08-11T14:50:43.264Z,1.30
2022-08-11T14:53:46.823Z,1.60
2022-08-11T14:57:03.284Z,1.60
2022-08-11T15:00:08.311Z,1.70
2022-08-11T15:03:13.269Z,1.83
2022-08-11T15:06:16.777Z,1.90
2022-08-11T15:09:19.774Z,1.65
2022-08-11T15:12:33.305Z,1.83
2022-08-11T15:15:54.924Z,1.60
2022-08-11T15:18:58.358Z,1.58
2022-08-11T15:22:21.271Z,1.48
2022-08-11T15:25:26.203Z,2.50
2022-08-11T15:28:56.161Z,1.63
2022-08-11T15:32:18.346Z,2.00
2022-08-11T15:35:41.014Z,1.90
2022-08-11T15:38:55.319Z,1.73
2022-08-11T15:42:22.153Z,1.70
2022-08-11T15:45:43.982Z,1.50
2022-08-11T15:48:56.242Z,1.50
2022-08-11T15:52:06.931Z,1.40
2022-08-11T15:55:09.911Z,1.33
2022-08-11T15:58:32.056Z,1.65
2022-08-11T16:01:54.391Z,1.60
2022-08-11T16:05:02.044Z,1.53
2022-08-11T16:08:05.052Z,1.70
2022-08-11T16:11:09.312Z,1.30
2022-08-11T16:14:31.686Z,1.65
2022-08-11T16:17:38.653Z,1.40
2022-08-11T16:20:41.753Z,1.40
2022-08-11T16:23:46.993Z,1.55
2022-08-11T16:27:08.098Z,1.70
2022-08-11T16:30:14.894Z,1.55
2022-08-11T16:33:47.864Z,1.80
2022-08-11T16:36:59.807Z,1.90
2022-08-11T16:40:03.431Z,1.52
2022-08-11T16:43:26.037Z,1.90
2022-08-11T16:46:47.193Z,1.27
2022-08-11T16:49:53.036Z,1.80
2022-08-11T16:52:56.234Z,2.47
2022-08-11T16:56:03.125Z,2.28
2022-08-11T16:59:16.577Z,1.63
2022-08-11T17:02:40.279Z,1.60
2022-08-11T17:06:05.533Z,2.03
2022-08-11T17:09:27.122Z,1.70
2022-08-11T17:12:48.458Z,1.45
2022-08-11T17:16:07.060Z,1.40
2022-08-11T17:19:18.583Z,1.60
2022-08-11T17:23:00.158Z,1.60
2022-08-11T17:26:04.687Z,1.43
2022-08-11T17:29:07.797Z,1.40
2022-08-11T17:32:56.301Z,1.60
2022-08-11T17:36:03.638Z,1.55
2022-08-11T17:39:08.989Z,1.50
2022-08-11T17:42:30.432Z,1.80
2022-08-11T17:45:51.705Z,1.73
2022-08-11T17:48:54.647Z,1.65
2022-08-11T17:52:16.056Z,1.52
2022-08-11T17:55:52.529Z,1.30
2022-08-11T17:59:15.006Z,1.70
2022-08-11T18:02:56.791Z,1.60
2022-08-11T18:06:03.492Z,1.55
2022-08-11T18:09:31.173Z,1.42
2022-08-11T18:12:52.493Z,1.50
2022-08-11T18:16:13.909Z,1.70
2022-08-11T18:19:35.479Z,1.40
2022-08-11T18:22:59.094Z,1.70
2022-08-11T18:26:20.791Z,1.60
2022-08-11T18:29:42.492Z,1.40
2022-08-11T18:33:39.934Z,1.30
2022-08-11T18:36:50.069Z,1.48
2022-08-11T18:40:20.444Z,1.52
2022-08-11T18:43:43.191Z,1.60
2022-08-11T18:47:07.968Z,1.80
2022-08-11T18:50:38.562Z,1.90
2022-08-11T18:54:02.354Z,1.63
2022-08-11T18:57:24.091Z,1.45
2022-08-11T19:00:45.620Z,1.50
2022-08-11T19:04:10.836Z,1.67
2022-08-11T19:07:33.428Z,1.50
2022-08-11T19:10:54.714Z,1.83
2022-08-11T19:14:16.645Z,1.33
2022-08-11T19:17:43.308Z,1.58
2022-08-11T19:21:07.433Z,1.60
2022-08-11T19:24:28.820Z,1.90
2022-08-11T19:27:50.368Z,1.50
2022-08-11T19:31:12.374Z,1.65
2022-08-11T19:34:35.676Z,1.92
2022-08-11T19:37:58.057Z,1.57
2022-08-11T19:41:52.362Z,1.90
2022-08-11T19:45:01.592Z,1.58
2022-08-11T19:48:32.442Z,1.40
2022-08-11T19:51:54.938Z,1.30
2022-08-11T19:55:16.338Z,1.40
2022-08-11T19:58:38.265Z,1.37
2022-08-11T20:02:01.640Z,1.60
2022-08-11T20:05:35.608Z,1.70
2022-08-11T20:08:59.084Z,1.27
2022-08-11T20:12:20.718Z,1.50
2022-08-11T20:15:45.911Z,1.67
2022-08-11T20:19:07.773Z,1.80
2022-08-11T20:22:29.259Z,1.30
2022-08-11T20:25:53.124Z,1.45
2022-08-11T20:29:17.511Z,1.63
2022-08-11T20:32:39.407Z,1.17
2022-08-11T20:36:01.529Z,1.58
2022-08-11T20:39:23.222Z,1.48
2022-08-11T20:42:45.354Z,1.42
2022-08-11T20:46:06.735Z,1.50
2022-08-11T20:49:45.301Z,1.50
2022-08-11T20:53:11.280Z,1.60
2022-08-11T20:56:32.677Z,1.65
2022-08-11T20:59:56.874Z,1.10
2022-08-11T21:03:35.349Z,1.53
2022-08-11T21:06:58.249Z,1.60
2022-08-11T21:10:23.458Z,1.80
2022-08-11T21:13:51.445Z,1.98
2022-08-11T21:17:26.919Z,1.50
2022-08-11T21:20:49.819Z,1.57
2022-08-11T21:24:11.658Z,1.27
2022-08-11T21:27:34.397Z,1.60
2022-08-11T21:30:57.869Z,1.65
2022-08-11T21:34:19.790Z,1.40
2022-08-11T21:37:41.497Z,1.43
2022-08-11T21:41:03.883Z,1.43
2022-08-11T21:44:25.535Z,1.60
2022-08-11T21:47:47.333Z,1.60
2022-08-11T21:51:08.670Z,1.40
2022-08-11T21:54:29.988Z,1.50
2022-08-11T21:57:51.441Z,1.33
2022-08-11T22:01:13.998Z,1.52
2022-08-11T22:04:35.933Z,1.40
2022-08-11T22:07:58.381Z,1.42
2022-08-11T22:11:32.446Z,1.60
2022-08-11T22:14:54.290Z,1.60
2022-08-11T22:18:15.709Z,1.45
2022-08-11T22:21:56.535Z,1.30
2022-08-11T22:25:18.878Z,1.20
2022-08-11T22:28:42.231Z,1.60
2022-08-11T22:32:03.847Z,1.70
2022-08-11T22:35:28.551Z,1.63
2022-08-11T22:38:54.490Z,1.63
2022-08-11T22:42:15.753Z,2.00
2022-08-11T22:45:37.594Z,1.80
2022-08-11T22:48:59.289Z,1.47
2022-08-11T22:52:20.946Z,1.80
2022-08-11T22:55:42.175Z,1.77
2022-08-11T22:59:03.538Z,1.58
2022-08-11T23:02:25.419Z,1.40
2022-08-11T23:05:46.740Z,1.40
2022-08-11T23:09:08.144Z,1.30
2022-08-11T23:12:29.867Z,1.20
2022-08-11T23:15:53.310Z,1.27
2022-08-11T23:19:14.945Z,1.40
2022-08-11T23:22:56.699Z,1.43
2022-08-11T23:26:17.962Z,1.40
2022-08-11T23:29:39.203Z,1.50
2022-08-11T23:33:03.046Z,1.40
2022-08-11T23:36:34.054Z,1.23
2022-08-11T23:40:06.060Z,1.10
2022-08-11T23:43:27.678Z,1.70
2022-08-11T23:46:49.139Z,1.15
2022-08-11T23:50:10.670Z,1.40
2022-08-11T23:53:37.546Z,1.23
2022-08-11T23:56:58.876Z,1.30
